KPSPMMTJ

Guest
Details From KPSP - Palm Springs Intl
To MMTJ - GENERAL ABELARDO L RODRIGUEZ INTL
Flight Number -
Tags generated
Created
Modified
Stats Distance 81 nm / 150 km
Max Altitude 100 ft / 30 m
Waypoints 3
Social Downloads 0
Likes 0
Share VATSIM

Download

Looking for another format? Having issues loading an existing format? Contact us
Advertisement - Login to hide

Notes

Basic altitude profile: - Ascent Rate: 2500ft/min - Ascent Speed: 240kts - Cruise Altitude: 19500ft - Cruise Speed: 360kts - Descent Rate: 2000ft/min - Descent Speed: 200kts Options: - Use NATs: yes - Use PACOTS: yes - Use low airways: yes - Use high airways: yes

Route

KPSP TIJ01 MMTJ

ID Type Via Altitude Latitude Longitude Leg Dist Tot Dist Heading (true) Name
O KPSP APT - 0 ft / 0 m 33.82968˚ -116.50622˚ - 0 nm - Palm Springs Intl
TIJ01 FIX - 100 ft / 30 m 32.55217˚ -116.96736˚ 80 nm 80 nm 197° / 197° -
O MMTJ APT - 0 ft / 0 m 32.54106˚ -116.97016˚ 0 nm 80 nm 192° / 192° GENERAL ABELARDO L RODRIGUEZ INTL

Altitude Profile

Advertisement - Login to hide

KPSP

Details ICAO KPSP (PSP)
Name Palm Springs Intl
Region United States
Timezone America/Los_Angeles (UTC-8.0)
Stats Elevation 477 ft / 145 m (AMSL)
Location 33.829677° -116.506218°
Runways 2
Magnetic Variation 11.580° E

METAR

KPSP 150953Z AUTO 32005KT 10SM CLR 21/M12 A3018 RMK AO2 SLP217 T02061117

Decode

TAF

KPSP 150520Z 1506/1606 32008KT P6SM SKC FM151400 VRB05KT P6SM SKC FM151900 12006KT P6SM SKC

Decode

Departure Runways

ID Width Length Bearing (true) Bearing (mag) Surface Threshold Offset Overrun Length
13L 75 ft / 23 m 4,958 ft / 1,511 m 143.52° 131.94° Asphalt 0 ft / 0 m 151 ft / 46 m
13R 151 ft / 46 m 10,012 ft / 3,052 m 143.52° 131.94° Asphalt 2,999 ft / 914 m 200 ft / 61 m
31L 151 ft / 46 m 10,012 ft / 3,052 m 323.53° 311.95° Asphalt 1,499 ft / 457 m 200 ft / 61 m
31R 75 ft / 23 m 4,958 ft / 1,511 m 323.53° 311.95° Asphalt 0 ft / 0 m 151 ft / 46 m

MMTJ

Details ICAO MMTJ (TIJ)
Name GENERAL ABELARDO L RODRIGUEZ INTL
Region Mexico
Timezone America/Tijuana (UTC-8.0)
Stats Elevation 489 ft / 149 m (AMSL)
Location 32.541063° -116.970158°
Runways 1
Magnetic Variation 11.442° E

METAR

Not found

TAF

TAF MMTJ 142312Z 1500/1606 31008KT P6SM SCT200 TX27/1521Z TN13/1512Z BECMG 1505/1506 02005KT FM151900 34010KT P6SM SCT200 BECMG 1602/103 32005KT

Decode

Destination Runways

ID Width Length Bearing (true) Bearing (mag) Surface Threshold Offset Overrun Length
09 144 ft / 44 m 9,660 ft / 2,944 m 98.85° 87.41° Concrete 0 ft / 0 m 180 ft / 55 m
27 144 ft / 44 m 9,660 ft / 2,944 m 278.86° 267.42° Concrete 0 ft / 0 m 180 ft / 55 m

Approach Navaids

Runway Type Ident Frequency Range Bearing (true) Bearing (mag) Slope Elevation
09 Localiser ITIJ 111.50 MHz 18 nm / 33 km 99.12° 87.68° - 489 ft / 149 m (AMSL)
09 Glidescope ITIJ 111.50 MHz 10 nm / 19 km 98.86° 87.41° 3.00° 489 ft / 149 m (AMSL)
09 DME ITIJ 111.50 MHz 18 nm / 33 km - - - 489 ft / 149 m (AMSL)

Popular Alternatives